sensor_id;sensor_type;location;lat;lon;timestamp;pressure;altitude;pressure_sealevel;temperature;humidity
84649;BME280;76539;52.392;16.888;2024-03-08T00:10:09;101540.0;;;-0.0;77.76
84649;BME280;76539;52.392;16.888;2024-03-08T00:25:09;101538.0;;;-0.13;77.94
84649;BME280;76539;52.392;16.888;2024-03-08T00:40:09;101538.0;;;-0.16;78.54
84649;BME280;76539;52.392;16.888;2024-03-08T00:55:09;101534.0;;;-0.19;78.32
84649;BME280;76539;52.392;16.888;2024-03-08T01:10:09;101522.0;;;-0.25;78.97
84649;BME280;76539;52.392;16.888;2024-03-08T01:25:09;101514.0;;;-0.35;79.36
84649;BME280;76539;52.392;16.888;2024-03-08T01:40:09;101511.0;;;-0.11;79.34
84649;BME280;76539;52.392;16.888;2024-03-08T01:55:09;101502.0;;;-0.14;79.36
84649;BME280;76539;52.392;16.888;2024-03-08T02:10:09;101489.0;;;-0.34;79.75
84649;BME280;76539;52.392;16.888;2024-03-08T02:30:09;101472.0;;;-0.49;79.95
84649;BME280;76539;52.392;16.888;2024-03-08T02:45:09;101470.0;;;-0.75;80.74
84649;BME280;76539;52.392;16.888;2024-03-08T03:00:09;101455.0;;;-0.91;81.34
84649;BME280;76539;52.392;16.888;2024-03-08T03:15:09;101450.0;;;-0.88;82.5
84649;BME280;76539;52.392;16.888;2024-03-08T03:30:09;101455.0;;;-0.55;81.34
84649;BME280;76539;52.392;16.888;2024-03-08T03:45:09;101463.0;;;-0.37;80.4
84649;BME280;76539;52.392;16.888;2024-03-08T04:00:09;101452.0;;;-0.38;80.26
84649;BME280;76539;52.392;16.888;2024-03-08T04:30:09;101438.0;;;-0.34;79.7
84649;BME280;76539;52.392;16.888;2024-03-08T04:45:09;101432.0;;;-0.45;79.77
84649;BME280;76539;52.392;16.888;2024-03-08T05:00:09;101435.0;;;-0.57;80.35
84649;BME280;76539;52.392;16.888;2024-03-08T05:15:09;101435.0;;;-0.66;80.77
84649;BME280;76539;52.392;16.888;2024-03-08T05:30:09;101437.0;;;-0.75;81.23
84649;BME280;76539;52.392;16.888;2024-03-08T05:45:09;101438.0;;;-0.71;81.27
84649;BME280;76539;52.392;16.888;2024-03-08T06:00:09;101441.0;;;-0.64;81.39
84649;BME280;76539;52.392;16.888;2024-03-08T06:15:09;101451.0;;;-0.52;80.9
84649;BME280;76539;52.392;16.888;2024-03-08T06:30:09;101445.0;;;-0.39;80.37
84649;BME280;76539;52.392;16.888;2024-03-08T06:45:09;101445.0;;;-0.15;79.68
84649;BME280;76539;52.392;16.888;2024-03-08T07:05:09;101435.0;;;0.57;76.96
84649;BME280;76539;52.392;16.888;2024-03-08T07:20:09;101434.0;;;0.92;75.61
84649;BME280;76539;52.392;16.888;2024-03-08T07:35:09;101426.0;;;3.57;66.97
84649;BME280;76539;52.392;16.888;2024-03-08T07:50:09;101407.0;;;5.13;61.04
84649;BME280;76539;52.392;16.888;2024-03-08T08:10:09;101399.0;;;7.18;55.12
84649;BME280;76539;52.392;16.888;2024-03-08T08:25:09;101384.0;;;8.3;50.87
84649;BME280;76539;52.392;16.888;2024-03-08T08:45:09;101380.0;;;8.83;48.7
84649;BME280;76539;52.392;16.888;2024-03-08T09:00:09;101370.0;;;9.19;47.69
84649;BME280;76539;52.392;16.888;2024-03-08T09:15:09;101351.0;;;9.47;45.91
84649;BME280;76539;52.392;16.888;2024-03-08T09:30:09;101337.0;;;9.72;44.69
84649;BME280;76539;52.392;16.888;2024-03-08T09:45:09;101335.0;;;10.36;43.17
84649;BME280;76539;52.392;16.888;2024-03-08T10:00:09;101318.0;;;11.08;41.16
84649;BME280;76539;52.392;16.888;2024-03-08T10:15:09;101292.0;;;11.42;38.24
84649;BME280;76539;52.392;16.888;2024-03-08T10:30:09;101292.0;;;12.27;37.53
84649;BME280;76539;52.392;16.888;2024-03-08T10:45:09;101288.0;;;12.31;39.36
84649;BME280;76539;52.392;16.888;2024-03-08T11:00:09;101266.0;;;13.1;38.05
84649;BME280;76539;52.392;16.888;2024-03-08T11:20:09;101248.0;;;13.36;35.85
84649;BME280;76539;52.392;16.888;2024-03-08T11:35:09;101235.0;;;13.56;34.95
84649;BME280;76539;52.392;16.888;2024-03-08T11:50:09;101215.0;;;14.04;34.6
84649;BME280;76539;52.392;16.888;2024-03-08T12:05:09;101201.0;;;14.86;33.07
84649;BME280;76539;52.392;16.888;2024-03-08T12:20:09;101186.0;;;14.93;33.04
84649;BME280;76539;52.392;16.888;2024-03-08T12:35:09;101162.0;;;15.56;31.91
84649;BME280;76539;52.392;16.888;2024-03-08T12:50:09;101152.0;;;16.63;30.4
84649;BME280;76539;52.392;16.888;2024-03-08T13:15:09;101120.0;;;15.12;32.2
84649;BME280;76539;52.392;16.888;2024-03-08T13:30:09;101111.0;;;14.27;34.24
84649;BME280;76539;52.392;16.888;2024-03-08T13:45:09;101103.0;;;13.68;35.8
84649;BME280;76539;52.392;16.888;2024-03-08T14:00:09;101070.0;;;14.02;34.25
84649;BME280;76539;52.392;16.888;2024-03-08T14:15:09;101054.0;;;14.08;34.59
84649;BME280;76539;52.392;16.888;2024-03-08T14:30:09;101045.0;;;13.83;35.76
84649;BME280;76539;52.392;16.888;2024-03-08T14:50:09;101038.0;;;13.17;36.12
84649;BME280;76539;52.392;16.888;2024-03-08T15:05:09;101034.0;;;12.43;36.68
84649;BME280;76539;52.392;16.888;2024-03-08T15:20:09;101020.0;;;12.55;36.49
84649;BME280;76539;52.392;16.888;2024-03-08T17:05:09;100987.0;;;7.19;49.52
